Time;durP1;ratioP1;P1;durP2;ratioP2;P2;SDS_P1;SDS_P2;PMS_P1;PMS_P2;Temp;Humidity;BMP_temperature;BMP_pressure;BME280_temperature;BME280_humidity;BME280_pressure;Samples;Min_cycle;Max_cycle;Signal;HPM_P1;HPM_P2
2022/04/06 00:00:44;;;;;;;3.17;2.28;;;7.90;99.90;;;;;;5067086;28;20546;-79
2022/04/06 00:03:10;;;;;;;4.32;2.38;;;7.90;99.90;;;;;;5061036;28;20067;-81
2022/04/06 00:05:36;;;;;;;1.95;1.77;;;8.00;99.90;;;;;;5083331;28;20044;-79
2022/04/06 00:08:02;;;;;;;4.15;2.55;;;7.90;99.90;;;;;;5073105;28;20032;-82
2022/04/06 00:10:31;;;;;;;2.15;1.52;;;8.00;99.90;;;;;;5077824;28;20044;-81
2022/04/06 00:12:58;;;;;;;2.83;2.10;;;8.00;99.90;;;;;;5063918;28;20081;-82
2022/04/06 00:15:24;;;;;;;3.00;1.60;;;7.90;99.90;;;;;;5077570;28;20032;-81
2022/04/06 00:17:50;;;;;;;3.30;2.30;;;7.90;99.90;;;;;;5054364;28;20481;-83
2022/04/06 00:20:16;;;;;;;12.15;3.78;;;7.90;99.90;;;;;;5042884;28;20041;-81
2022/04/06 00:22:42;;;;;;;;;;;8.00;99.90;;;;;;5070033;28;20040;-78
2022/04/06 00:25:08;;;;;;;1.98;1.85;;;8.00;99.90;;;;;;5071085;28;19983;-81
2022/04/06 00:27:34;;;;;;;6.30;3.25;;;7.90;99.90;;;;;;5072224;28;20089;-78
2022/04/06 00:30:00;;;;;;;2.65;1.23;;;7.90;99.90;;;;;;5037617;28;20036;-83
2022/04/06 00:32:26;;;;;;;5.97;3.00;;;7.90;99.90;;;;;;5035249;28;20434;-81
2022/04/06 00:37:36;;;;;;;11.80;3.20;;;7.90;99.90;;;;;;5056903;28;20048;-80
2022/04/06 00:40:03;;;;;;;6.57;3.22;;;8.00;99.90;;;;;;5070570;28;20102;-79
2022/04/06 00:42:29;;;;;;;4.85;2.75;;;8.50;99.90;;;;;;5070465;28;20048;-83
2022/04/06 00:44:54;;;;;;;6.32;2.65;;;8.00;99.90;;;;;;5036172;28;20037;-83
2022/04/06 00:47:20;;;;;;;3.67;3.38;;;8.00;99.90;;;;;;5074121;28;20436;-83
2022/04/06 00:49:46;;;;;;;9.15;3.40;;;8.00;99.90;;;;;;5069622;28;20040;-78
2022/04/06 00:52:12;;;;;;;11.90;4.38;;;7.90;99.90;;;;;;5020477;28;20036;-82
2022/04/06 00:54:38;;;;;;;3.85;2.80;;;8.00;99.90;;;;;;5053377;28;20059;-80
2022/04/06 00:57:04;;;;;;;6.45;3.85;;;8.00;99.90;;;;;;5074293;28;20044;-83
2022/04/06 00:59:31;;;;;;;6.05;3.55;;;8.00;99.90;;;;;;5069941;28;20052;-80
2022/04/06 01:01:57;;;;;;;;;;;8.00;99.90;;;;;;5074158;28;20067;-82
2022/04/06 01:04:23;;;;;;;6.47;2.83;;;7.90;99.90;;;;;;5057345;28;19924;-80
2022/04/06 01:06:49;;;;;;;5.57;2.70;;;8.00;99.90;;;;;;5073940;28;20072;-78
2022/04/06 01:09:20;;;;;;;5.40;2.53;;;8.00;99.90;;;;;;5077154;28;20039;-80
2022/04/06 01:11:49;;;;;;;8.35;4.65;;;7.90;99.90;;;;;;5057515;28;20036;-79
2022/04/06 01:14:16;;;;;;;5.45;3.53;;;8.00;99.90;;;;;;5079034;28;20528;-81
2022/04/06 01:16:56;;;;;;;4.65;3.95;;;8.00;99.90;;;;;;5072892;28;20098;-78
2022/04/06 01:19:22;;;;;;;3.47;2.92;;;8.10;99.90;;;;;;5079774;28;20102;-80
2022/04/06 01:21:47;;;;;;;13.07;3.40;;;8.10;99.90;;;;;;5060027;28;20049;-82
2022/04/06 01:24:13;;;;;;;10.05;5.47;;;8.10;99.90;;;;;;5085860;28;20040;-79
2022/04/06 01:26:39;;;;;;;6.72;3.10;;;8.10;99.90;;;;;;5058269;28;20041;-80
2022/04/06 01:29:04;;;;;;;14.55;5.13;;;8.10;99.90;;;;;;5045461;28;20481;-82
2022/04/06 01:31:30;;;;;;;5.03;4.45;;;8.10;99.90;;;;;;5074837;28;20083;-81
2022/04/06 01:33:56;;;;;;;7.82;3.65;;;8.10;99.90;;;;;;5043155;28;20048;-83
2022/04/06 01:36:21;;;;;;;12.35;4.70;;;8.20;99.90;;;;;;5072950;28;20060;-78
2022/04/06 01:38:47;;;;;;;10.00;3.17;;;8.10;99.90;;;;;;5079390;28;20045;-80
2022/04/06 01:41:12;;;;;;;5.40;3.45;;;8.20;99.90;;;;;;5035201;28;20041;-78
2022/04/06 01:43:38;;;;;;;6.15;3.75;;;8.20;99.90;;;;;;5048620;28;20103;-82
2022/04/06 01:46:04;;;;;;;10.02;4.32;;;8.20;99.90;;;;;;5054025;28;20358;-80
2022/04/06 01:48:29;;;;;;;7.03;3.05;;;8.20;99.90;;;;;;5063746;28;20114;-82
2022/04/06 01:53:39;;;;;;;5.28;4.32;;;8.20;99.90;;;;;;5062121;28;20474;-77
2022/04/06 01:56:05;;;;;;;8.73;3.53;;;8.20;99.90;;;;;;5055998;28;20123;-80
2022/04/06 01:58:31;;;;;;;2.78;2.35;;;8.20;99.90;;;;;;5074361;28;20082;-78
2022/04/06 02:00:56;;;;;;;6.65;3.47;;;8.20;99.90;;;;;;5046974;28;20045;-83
2022/04/06 02:03:22;;;;;;;4.43;2.97;;;8.20;99.90;;;;;;5075806;28;20213;-80
2022/04/06 02:05:48;;;;;;;7.15;3.78;;;8.20;99.90;;;;;;5036050;28;20041;-83
2022/04/06 02:08:13;;;;;;;5.55;3.05;;;8.20;99.90;;;;;;5042944;28;20439;-79
2022/04/06 02:10:39;;;;;;;2.20;1.70;;;8.20;99.90;;;;;;5055516;28;20047;-78
2022/04/06 02:13:06;;;;;;;2.00;1.83;;;8.20;99.90;;;;;;5055008;28;20063;-81
2022/04/06 02:15:32;;;;;;;7.57;3.03;;;8.20;99.90;;;;;;5060775;28;20041;-82
2022/04/06 02:18:00;;;;;;;6.40;2.72;;;8.40;99.90;;;;;;5076830;28;20044;-82
2022/04/06 02:20:25;;;;;;;7.63;2.42;;;8.30;99.90;;;;;;5066975;28;20436;-79
2022/04/06 02:22:51;;;;;;;2.92;2.28;;;8.30;99.90;;;;;;5061842;28;20048;-82
2022/04/06 02:25:17;;;;;;;3.72;2.45;;;8.30;99.90;;;;;;5050836;28;20382;-82
2022/04/06 02:27:50;;;;;;;7.03;3.22;;;8.30;99.90;;;;;;5053339;28;20064;-82
2022/04/06 02:30:17;;;;;;;5.72;2.83;;;8.20;99.90;;;;;;5063766;28;20037;-80
2022/04/06 02:32:44;;;;;;;7.95;4.07;;;8.30;99.90;;;;;;5063894;28;20111;-80
2022/04/06 02:35:10;;;;;;;6.55;2.97;;;8.30;99.90;;;;;;5074553;28;20401;-83
2022/04/06 02:37:36;;;;;;;4.75;2.88;;;8.30;99.90;;;;;;5077662;28;20076;-77
2022/04/06 02:40:04;;;;;;;4.50;2.80;;;8.30;99.90;;;;;;5074039;28;20130;-81
2022/04/06 02:42:30;;;;;;;6.00;3.78;;;8.30;99.90;;;;;;5058330;28;20040;-77
2022/04/06 02:44:56;;;;;;;18.52;3.38;;;8.30;99.90;;;;;;5039021;28;20583;-78
2022/04/06 02:47:21;;;;;;;3.35;1.95;;;8.30;99.90;;;;;;5063354;28;20056;-79
2022/04/06 02:49:47;;;;;;;8.93;2.17;;;8.30;99.90;;;;;;5052651;28;20401;-83
2022/04/06 02:52:13;;;;;;;3.67;2.33;;;8.30;99.90;;;;;;5038678;28;20029;-80
2022/04/06 02:54:39;;;;;;;9.02;3.78;;;8.30;99.90;;;;;;5071048;28;20469;-80
2022/04/06 02:57:06;;;;;;;3.20;2.28;;;8.30;99.90;;;;;;5043964;28;20040;-81
2022/04/06 02:59:32;;;;;;;5.53;3.60;;;8.20;99.90;;;;;;5055917;28;20367;-80
2022/04/06 03:01:57;;;;;;;7.10;2.70;;;8.20;99.90;;;;;;5072728;28;20040;-79
2022/04/06 03:04:23;;;;;;;8.45;2.42;;;8.30;99.90;;;;;;5070710;28;20529;-84
2022/04/06 03:06:49;;;;;;;4.93;2.67;;;8.30;99.90;;;;;;5037237;28;20037;-83
2022/04/06 03:09:14;;;;;;;5.60;2.47;;;8.30;99.90;;;;;;5046359;28;20040;-81
2022/04/06 03:11:40;;;;;;;2.83;2.22;;;8.30;99.90;;;;;;5059333;28;20045;-80
2022/04/06 03:14:06;;;;;;;4.10;2.35;;;8.30;99.90;;;;;;5070248;28;20427;-79
2022/04/06 03:16:32;;;;;;;2.83;1.90;;;8.30;99.90;;;;;;5060539;28;20046;-81
2022/04/06 03:18:57;;;;;;;8.75;2.72;;;8.30;99.90;;;;;;5060074;28;20047;-82
2022/04/06 03:21:23;;;;;;;8.75;2.13;;;8.30;99.90;;;;;;5038519;28;20044;-80
2022/04/06 03:23:49;;;;;;;5.10;1.67;;;8.30;99.90;;;;;;5051584;28;20101;-82
2022/04/06 03:26:15;;;;;;;5.78;1.38;;;8.30;99.90;;;;;;5046947;28;20044;-79
2022/04/06 03:28:41;;;;;;;5.38;2.15;;;8.30;99.90;;;;;;5081573;28;20375;-79
2022/04/06 03:31:07;;;;;;;5.40;2.97;;;8.30;99.90;;;;;;5054240;28;20068;-80
2022/04/06 03:33:33;;;;;;;;;;;8.30;99.90;;;;;;5056410;28;20037;-84
2022/04/06 03:35:59;;;;;;;4.97;1.95;;;8.20;99.90;;;;;;5075493;28;19943;-82
2022/04/06 03:38:24;;;;;;;1.95;1.50;;;8.20;99.90;;;;;;5074329;28;20059;-81
2022/04/06 03:40:50;;;;;;;4.35;1.85;;;8.20;99.90;;;;;;5054382;28;20481;-81
2022/04/06 03:43:16;;;;;;;6.22;1.35;;;8.20;99.90;;;;;;5056639;28;20040;-80
2022/04/06 03:45:42;;;;;;;;;;;8.20;99.90;;;;;;5071103;28;20067;-80
2022/04/06 03:48:08;;;;;;;3.65;1.85;;;8.20;99.90;;;;;;5054250;28;20374;-80
2022/04/06 03:50:34;;;;;;;2.60;1.60;;;8.20;99.90;;;;;;5055718;28;20050;-80
2022/04/06 03:52:59;;;;;;;3.22;2.13;;;8.20;99.90;;;;;;5056392;28;20044;-79
2022/04/06 03:55:25;;;;;;;1.33;1.23;;;8.20;99.90;;;;;;5047331;28;20496;-78
2022/04/06 03:57:51;;;;;;;4.57;1.92;;;8.10;99.90;;;;;;5054519;28;20094;-79
2022/04/06 04:00:17;;;;;;;2.67;1.88;;;8.10;99.90;;;;;;5037833;28;20493;-80
2022/04/06 04:02:44;;;;;;;7.07;2.45;;;8.10;99.90;;;;;;5053425;28;20072;-80
2022/04/06 04:05:09;;;;;;;;;;;8.10;99.90;;;;;;5069942;28;20040;-79
2022/04/06 04:07:37;;;;;;;8.38;2.47;;;8.10;99.90;;;;;;5038463;28;19928;-81
2022/04/06 04:10:14;;;;;;;5.00;1.73;;;8.00;99.90;;;;;;5065580;28;20041;-82
2022/04/06 04:12:41;;;;;;;4.80;2.22;;;8.00;99.90;;;;;;5053814;28;20417;-84
2022/04/06 04:15:07;;;;;;;5.25;2.10;;;8.00;99.90;;;;;;5052447;28;20048;-83
2022/04/06 04:17:32;;;;;;;;;;;7.90;99.90;;;;;;5045086;28;20065;-80
2022/04/06 04:19:58;;;;;;;6.15;3.53;;;8.00;99.90;;;;;;5068714;28;19964;-84
2022/04/06 04:22:24;;;;;;;7.63;2.35;;;7.90;99.90;;;;;;5054135;28;20167;-81
2022/04/06 04:24:50;;;;;;;4.47;2.45;;;7.90;99.90;;;;;;5064577;28;20045;-79
2022/04/06 04:27:16;;;;;;;12.55;4.75;;;7.90;99.90;;;;;;5070658;28;20040;-79
2022/04/06 04:29:42;;;;;;;3.80;2.22;;;8.00;99.90;;;;;;5072482;28;20040;-79
2022/04/06 04:32:10;;;;;;;5.53;2.85;;;7.90;99.90;;;;;;5071017;28;20486;-78
2022/04/06 04:34:36;;;;;;;3.92;2.78;;;7.90;99.90;;;;;;5073847;28;20044;-80
2022/04/06 04:37:02;;;;;;;;;;;7.90;99.90;;;;;;5066600;28;20602;-78
2022/04/06 04:39:27;;;;;;;6.32;3.75;;;7.90;99.90;;;;;;5062678;28;19917;-80
2022/04/06 04:41:53;;;;;;;17.63;3.65;;;7.90;99.90;;;;;;5034097;28;20048;-80
2022/04/06 04:44:19;;;;;;;9.40;3.88;;;7.90;99.90;;;;;;5072088;28;20055;-82
2022/04/06 04:46:45;;;;;;;3.40;2.55;;;7.90;99.90;;;;;;5060916;28;20401;-82
2022/04/06 04:49:11;;;;;;;6.35;3.70;;;8.00;99.90;;;;;;5036992;28;20037;-79
2022/04/06 04:51:36;;;;;;;9.95;4.68;;;8.00;99.90;;;;;;5055378;28;20036;-80
2022/04/06 04:54:03;;;;;;;8.82;4.07;;;8.10;99.90;;;;;;5089883;28;20040;-81
2022/04/06 04:56:30;;;;;;;5.72;3.33;;;8.00;99.90;;;;;;5064307;28;20041;-82
2022/04/06 04:58:56;;;;;;;8.35;4.38;;;8.10;99.90;;;;;;5038628;28;21031;-84
2022/04/06 05:01:22;;;;;;;2.95;2.47;;;8.00;99.90;;;;;;5071039;28;20040;-82
2022/04/06 05:03:48;;;;;;;5.35;3.35;;;8.00;99.90;;;;;;5049786;28;20041;-80
2022/04/06 05:06:14;;;;;;;;;;;8.00;99.90;;;;;;5072502;28;20081;-81
2022/04/06 05:08:40;;;;;;;10.50;4.07;;;8.00;99.90;;;;;;5041434;28;20003;-82
2022/04/06 05:11:07;;;;;;;7.22;3.83;;;8.10;99.90;;;;;;5021961;28;20128;-80
2022/04/06 05:13:33;;;;;;;11.00;3.22;;;8.00;99.90;;;;;;5037175;28;20117;-83
2022/04/06 05:16:04;;;;;;;10.43;4.07;;;8.00;99.90;;;;;;5069810;28;20048;-81
2022/04/06 05:18:30;;;;;;;7.75;3.13;;;8.00;99.90;;;;;;5069996;28;20091;-80
2022/04/06 05:21:00;;;;;;;3.55;2.35;;;8.00;99.90;;;;;;5048245;28;20044;-78
2022/04/06 05:23:26;;;;;;;6.07;3.22;;;8.00;99.90;;;;;;5047182;28;20076;-82
2022/04/06 05:25:51;;;;;;;9.18;3.67;;;8.10;99.90;;;;;;5056004;28;20083;-81
2022/04/06 05:28:18;;;;;;;8.55;4.28;;;8.00;99.90;;;;;;5056364;28;20041;-80
2022/04/06 05:30:46;;;;;;;2.92;2.42;;;8.00;99.90;;;;;;5058239;28;20037;-81
2022/04/06 05:33:12;;;;;;;6.75;3.70;;;8.00;99.90;;;;;;5071205;28;20926;-82
2022/04/06 05:35:38;;;;;;;4.10;2.45;;;7.90;99.90;;;;;;5071505;28;20040;-86
2022/04/06 05:38:04;;;;;;;10.52;4.28;;;7.90;99.90;;;;;;5041546;28;20113;-83
2022/04/06 05:40:31;;;;;;;5.18;2.75;;;7.90;99.90;;;;;;5074944;28;20411;-82
2022/04/06 05:42:57;;;;;;;9.32;3.92;;;7.80;99.90;;;;;;5046822;28;20394;-80
2022/04/06 05:45:23;;;;;;;2.60;2.38;;;7.80;99.90;;;;;;5070961;28;20040;-80
2022/04/06 05:47:50;;;;;;;4.45;2.78;;;7.80;99.90;;;;;;5019954;28;20098;-78
2022/04/06 05:50:16;;;;;;;9.88;4.75;;;7.80;99.90;;;;;;5066461;28;20498;-79
2022/04/06 05:52:42;;;;;;;9.13;4.18;;;7.70;99.90;;;;;;5054618;28;20115;-78
2022/04/06 05:55:08;;;;;;;8.70;3.15;;;7.80;99.90;;;;;;5037821;28;20159;-79
2022/04/06 05:57:40;;;;;;;7.15;4.28;;;7.80;99.90;;;;;;5049117;28;20066;-82
2022/04/06 06:00:09;;;;;;;11.70;2.92;;;7.80;99.90;;;;;;5071439;28;20124;-80
2022/04/06 06:02:35;;;;;;;8.85;3.13;;;7.70;99.90;;;;;;5059636;28;21717;-79
2022/04/06 06:05:02;;;;;;;11.30;3.00;;;7.70;99.90;;;;;;5055804;28;20060;-80
2022/04/06 06:07:27;;;;;;;11.32;4.85;;;7.70;99.90;;;;;;5054290;28;20123;-80
2022/04/06 06:09:59;;;;;;;2.45;1.63;;;7.70;99.90;;;;;;5042549;28;20047;-79
2022/04/06 06:12:25;;;;;;;;;;;7.70;99.90;;;;;;5071499;28;20048;-79
2022/04/06 06:14:51;;;;;;;6.20;3.30;;;7.70;99.90;;;;;;5028016;28;19920;-79
2022/04/06 06:17:17;;;;;;;9.82;4.80;;;7.70;99.90;;;;;;5037666;28;20144;-85
2022/04/06 06:19:42;;;;;;;5.55;2.60;;;7.70;99.90;;;;;;5028647;28;20036;-83
2022/04/06 06:22:08;;;;;;;4.78;3.30;;;7.70;99.90;;;;;;5046367;28;20045;-79
2022/04/06 06:24:34;;;;;;;5.28;2.60;;;7.70;99.90;;;;;;5062834;28;20394;-80
2022/04/06 06:27:00;;;;;;;3.13;2.67;;;7.70;99.90;;;;;;5032881;28;20077;-81
2022/04/06 06:29:26;;;;;;;3.80;2.70;;;7.70;99.90;;;;;;5052303;28;20043;-79
2022/04/06 06:31:51;;;;;;;5.05;2.90;;;7.70;99.90;;;;;;5038031;28;20071;-80
2022/04/06 06:34:17;;;;;;;5.70;3.28;;;7.70;99.90;;;;;;5061598;28;20048;-81
2022/04/06 06:36:43;;;;;;;5.65;3.55;;;7.70;99.90;;;;;;5071383;28;20696;-81
2022/04/06 06:39:08;;;;;;;6.63;2.35;;;7.70;99.90;;;;;;5036866;28;20106;-79
2022/04/06 06:41:35;;;;;;;3.70;1.88;;;7.70;99.90;;;;;;5028186;28;20060;-80
2022/04/06 06:44:01;;;;;;;13.25;3.17;;;7.70;99.90;;;;;;5049366;28;20040;-82
2022/04/06 06:46:29;;;;;;;;;;;7.70;99.90;;;;;;5088215;28;20048;-83
2022/04/06 06:49:02;;;;;;;2.90;2.35;;;7.70;99.90;;;;;;5054122;28;20003;-77
2022/04/06 06:51:32;;;;;;;6.13;2.75;;;7.70;99.90;;;;;;5041232;28;20527;-77
2022/04/06 06:54:00;;;;;;;4.10;2.70;;;7.70;99.90;;;;;;5078886;28;20489;-82
2022/04/06 06:56:26;;;;;;;4.97;3.28;;;6.90;99.90;;;;;;5071741;28;20040;-80
2022/04/06 06:58:51;;;;;;;;;;;7.70;99.90;;;;;;5053383;28;20067;-78
2022/04/06 07:01:22;;;;;;;4.63;3.38;;;7.70;99.90;;;;;;5065690;28;20255;-79
2022/04/06 07:03:48;;;;;;;7.55;3.22;;;7.70;99.90;;;;;;5059967;28;20033;-80
2022/04/06 07:06:14;;;;;;;4.63;2.50;;;7.90;99.90;;;;;;5035362;28;20056;-80
2022/04/06 07:08:40;;;;;;;6.93;3.95;;;7.70;99.90;;;;;;5055869;28;20079;-82
2022/04/06 07:11:08;;;;;;;4.95;3.47;;;7.80;99.90;;;;;;5049973;28;20040;-83
2022/04/06 07:13:33;;;;;;;7.72;3.50;;;7.70;99.90;;;;;;5048717;28;20068;-77
2022/04/06 07:15:59;;;;;;;3.92;2.40;;;7.80;99.90;;;;;;5079353;28;20874;-77
2022/04/06 07:18:25;;;;;;;3.55;1.88;;;7.70;99.90;;;;;;5050892;28;20040;-79
2022/04/06 07:20:51;;;;;;;7.93;3.17;;;7.70;99.90;;;;;;5024584;28;20320;-79
2022/04/06 07:23:16;;;;;;;6.93;2.92;;;7.70;99.90;;;;;;5044679;28;20405;-78
2022/04/06 07:25:42;;;;;;;8.38;1.95;;;7.70;99.90;;;;;;5037454;28;20584;-76
2022/04/06 07:28:08;;;;;;;1.67;1.45;;;7.70;99.90;;;;;;5071418;28;20047;-80
2022/04/06 07:30:34;;;;;;;4.82;3.47;;;7.70;99.90;;;;;;5048627;28;20379;-79
2022/04/06 07:33:01;;;;;;;9.60;2.45;;;7.80;99.90;;;;;;5069568;28;20041;-80
2022/04/06 07:35:28;;;;;;;3.40;2.00;;;7.80;99.90;;;;;;5045324;28;20071;-78
2022/04/06 07:37:54;;;;;;;3.45;1.80;;;7.70;99.90;;;;;;5055077;28;20045;-79
2022/04/06 07:40:23;;;;;;;2.30;1.92;;;7.70;99.90;;;;;;5074785;28;20405;-81
2022/04/06 07:42:51;;;;;;;3.03;2.20;;;7.70;99.90;;;;;;5052880;28;20048;-79
2022/04/06 07:45:20;;;;;;;4.40;2.35;;;7.80;99.90;;;;;;5064195;28;20048;-81
2022/04/06 07:47:47;;;;;;;3.70;2.80;;;7.80;99.90;;;;;;5067140;28;20107;-79
2022/04/06 07:50:14;;;;;;;5.32;2.38;;;7.80;99.90;;;;;;5071624;28;20033;-78
2022/04/06 07:52:40;;;;;;;5.30;2.40;;;7.80;99.90;;;;;;5058749;28;20097;-81
2022/04/06 07:55:07;;;;;;;3.45;2.03;;;7.80;99.90;;;;;;5043530;28;20053;-78
2022/04/06 07:57:34;;;;;;;5.88;3.60;;;7.80;99.90;;;;;;5023712;28;20040;-78
2022/04/06 08:00:05;;;;;;;4.35;2.50;;;7.80;99.90;;;;;;5053799;28;20138;-83
2022/04/06 08:02:32;;;;;;;5.32;2.45;;;7.80;99.90;;;;;;5049203;28;20044;-81
2022/04/06 08:04:58;;;;;;;4.75;2.33;;;7.90;99.90;;;;;;5050926;28;20029;-81
2022/04/06 08:07:24;;;;;;;4.45;2.35;;;7.80;99.90;;;;;;5047572;28;20516;-82
2022/04/06 08:09:49;;;;;;;2.33;2.08;;;7.90;99.90;;;;;;5051308;28;20603;-80
2022/04/06 08:12:15;;;;;;;4.60;2.75;;;7.90;99.90;;;;;;5043692;28;20132;-79
2022/04/06 08:14:41;;;;;;;9.98;2.58;;;7.90;99.90;;;;;;5032899;28;20555;-79
2022/04/06 08:17:06;;;;;;;4.43;2.30;;;7.90;99.90;;;;;;5073160;28;20085;-80
2022/04/06 08:19:32;;;;;;;7.63;2.35;;;7.90;99.90;;;;;;5046496;28;20478;-81
2022/04/06 08:21:58;;;;;;;3.10;2.25;;;7.90;99.90;;;;;;5060425;28;20059;-78
2022/04/06 08:24:27;;;;;;;1.85;1.65;;;7.90;99.90;;;;;;5050255;28;20033;-79
2022/04/06 08:26:53;;;;;;;4.18;1.65;;;7.90;99.90;;;;;;5051265;28;20044;-81
2022/04/06 08:29:19;;;;;;;6.03;2.47;;;7.90;99.90;;;;;;5044886;28;20040;-79
2022/04/06 08:31:45;;;;;;;4.57;2.00;;;7.90;99.90;;;;;;5050964;28;20090;-78
2022/04/06 08:34:12;;;;;;;3.80;1.48;;;8.00;99.90;;;;;;5049122;28;20041;-81
2022/04/06 08:36:40;;;;;;;5.70;2.38;;;7.90;99.90;;;;;;5024963;28;20028;-80
2022/04/06 08:39:07;;;;;;;4.05;2.58;;;8.00;99.90;;;;;;5076958;28;20036;-82
2022/04/06 08:41:33;;;;;;;2.13;1.20;;;7.90;99.90;;;;;;5034644;28;20041;-82
2022/04/06 08:43:59;;;;;;;8.20;3.97;;;8.00;99.90;;;;;;5039097;28;20052;-79
2022/04/06 08:46:25;;;;;;;2.50;1.75;;;8.00;99.90;;;;;;5028125;28;20040;-80
2022/04/06 08:48:52;;;;;;;11.75;3.00;;;8.00;99.90;;;;;;5060959;28;20044;-82
2022/04/06 08:51:19;;;;;;;5.22;3.65;;;8.10;99.90;;;;;;5038386;28;20041;-78
2022/04/06 08:53:47;;;;;;;6.70;3.35;;;8.10;99.90;;;;;;5058745;28;20116;-80
2022/04/06 08:56:14;;;;;;;4.07;1.98;;;8.20;99.90;;;;;;5026534;28;20040;-80
2022/04/06 08:58:43;;;;;;;1.77;1.67;;;8.30;99.90;;;;;;5046524;28;20095;-81
2022/04/06 09:01:09;;;;;;;7.47;3.78;;;8.40;99.90;;;;;;5062165;28;20059;-79
2022/04/06 09:03:35;;;;;;;3.00;2.35;;;8.50;99.90;;;;;;5049468;28;20059;-81
2022/04/06 09:06:08;;;;;;;;;;;8.60;99.90;;;;;;5069167;28;20047;-79
2022/04/06 09:08:44;;;;;;;4.07;2.45;;;8.60;99.90;;;;;;5072887;28;19927;-83
2022/04/06 09:11:14;;;;;;;5.05;2.05;;;8.60;99.90;;;;;;5058778;28;20191;-79
2022/04/06 09:13:44;;;;;;;3.03;2.35;;;8.60;99.90;;;;;;5041742;28;20060;-81
2022/04/06 09:16:18;;;;;;;2.30;1.95;;;8.60;99.90;;;;;;5062369;28;20044;-85
2022/04/06 09:18:48;;;;;;;6.00;2.25;;;8.60;99.90;;;;;;5048186;28;20432;-79
2022/04/06 09:21:18;;;;;;;6.07;2.25;;;8.70;99.90;;;;;;5064449;28;20549;-77
2022/04/06 09:23:52;;;;;;;1.25;1.15;;;8.70;99.90;;;;;;5049883;28;20044;-84
2022/04/06 09:26:21;;;;;;;8.63;3.00;;;8.80;99.90;;;;;;5066840;28;20040;-77
2022/04/06 09:28:48;;;;;;;1.85;1.17;;;9.00;99.90;;;;;;5066313;28;20469;-82
2022/04/06 09:31:16;;;;;;;4.75;1.95;;;9.20;99.90;;;;;;5058816;28;20040;-82
2022/04/06 09:33:43;;;;;;;7.28;2.72;;;9.30;99.90;;;;;;5044882;28;20048;-80
2022/04/06 09:36:19;;;;;;;3.42;1.98;;;9.40;99.90;;;;;;5060780;28;20123;-80
2022/04/06 09:38:48;;;;;;;3.93;2.40;;;9.40;99.90;;;;;;5067325;28;20045;-82
2022/04/06 09:41:15;;;;;;;5.57;2.28;;;9.50;99.90;;;;;;5056574;28;21040;-77
2022/04/06 09:43:41;;;;;;;5.25;3.03;;;9.50;99.90;;;;;;5066942;28;20111;-78
2022/04/06 09:49:14;;;;;;;3.65;1.98;;;9.60;99.90;;;;;;5058125;28;20143;-77
2022/04/06 09:51:45;;;;;;;7.30;2.05;;;9.60;99.90;;;;;;5066723;28;20037;-80
2022/04/06 09:54:12;;;;;;;3.20;2.20;;;9.70;99.90;;;;;;5064360;28;20037;-78
2022/04/06 09:56:40;;;;;;;7.97;4.20;;;9.70;99.90;;;;;;5039607;28;20044;-78
2022/04/06 09:59:07;;;;;;;4.47;2.65;;;9.70;99.90;;;;;;5066621;28;20075;-80
2022/04/06 10:01:38;;;;;;;3.53;1.75;;;9.70;99.90;;;;;;5055767;28;20033;-81
2022/04/06 10:04:10;;;;;;;4.07;2.22;;;9.60;99.90;;;;;;5050911;28;20532;-79
2022/04/06 10:06:41;;;;;;;4.25;2.67;;;9.60;99.90;;;;;;5051507;28;20040;-83
2022/04/06 10:09:14;;;;;;;8.82;4.20;;;9.60;99.90;;;;;;5053827;28;20102;-81
2022/04/06 10:11:46;;;;;;;5.15;2.25;;;9.60;99.90;;;;;;5053122;28;20114;-83
2022/04/06 10:14:12;;;;;;;8.50;2.20;;;9.60;99.90;;;;;;5063241;28;20032;-80
2022/04/06 10:16:38;;;;;;;6.03;2.70;;;9.60;99.90;;;;;;5067659;28;20041;-81
2022/04/06 10:19:15;;;;;;;4.07;2.30;;;9.60;99.90;;;;;;5048967;28;20044;-78
2022/04/06 10:21:56;;;;;;;9.85;3.10;;;9.60;99.90;;;;;;5071865;28;20516;-80
2022/04/06 10:24:31;;;;;;;11.10;2.65;;;9.60;99.90;;;;;;5059165;28;20049;-86
2022/04/06 10:27:27;;;;;;;8.68;3.45;;;9.60;99.90;;;;;;5066112;28;20048;-86
2022/04/06 10:30:13;;;;;;;5.07;2.63;;;9.60;99.90;;;;;;5083893;28;20044;-82
2022/04/06 10:32:41;;;;;;;11.60;4.50;;;9.60;99.90;;;;;;5069695;28;20037;-82
2022/04/06 10:35:39;;;;;;;8.15;3.85;;;9.60;99.90;;;;;;5047990;28;20535;-81
2022/04/06 10:38:05;;;;;;;1.50;1.38;;;9.60;99.90;;;;;;5008322;28;20090;-83
2022/04/06 10:40:46;;;;;;;10.40;3.22;;;9.80;99.90;;;;;;5063135;28;20727;-81
2022/04/06 10:43:38;;;;;;;5.70;4.13;;;9.70;99.90;;;;;;5068647;28;20044;-79
2022/04/06 10:46:15;;;;;;;4.35;3.08;;;9.70;99.90;;;;;;5057756;28;20040;-81
2022/04/06 10:48:58;;;;;;;7.93;3.17;;;9.60;99.90;;;;;;5062426;28;20040;-81
2022/04/06 10:51:33;;;;;;;2.42;1.50;;;9.60;99.90;;;;;;5050078;28;20044;-83
2022/04/06 10:54:19;;;;;;;4.53;2.90;;;9.50;99.90;;;;;;5035728;28;20044;-77
2022/04/06 10:56:53;;;;;;;6.57;3.47;;;9.50;99.90;;;;;;5053107;28;20043;-80
2022/04/06 10:59:24;;;;;;;3.97;2.47;;;9.50;99.90;;;;;;5038810;28;20090;-81
2022/04/06 11:02:10;;;;;;;3.88;2.25;;;9.50;99.90;;;;;;5068257;28;20040;-80
2022/04/06 11:04:40;;;;;;;12.38;3.55;;;9.40;99.90;;;;;;5078327;28;20088;-79
2022/04/06 11:07:08;;;;;;;7.20;3.83;;;9.40;99.90;;;;;;5052072;28;20334;-80
2022/04/06 11:12:22;;;;;;;3.50;2.33;;;9.30;99.90;;;;;;5044367;28;20056;-81
2022/04/06 11:15:09;;;;;;;11.27;4.38;;;9.50;99.90;;;;;;5038437;28;20061;-82
2022/04/06 11:17:38;;;;;;;5.65;3.42;;;9.50;99.90;;;;;;5051333;28;20067;-80
2022/04/06 11:20:09;;;;;;;6.90;3.40;;;9.50;99.90;;;;;;5073587;28;20040;-79
2022/04/06 11:22:53;;;;;;;6.72;2.17;;;9.40;99.90;;;;;;5052567;28;20454;-83
2022/04/06 11:25:21;;;;;;;8.35;2.65;;;9.40;99.90;;;;;;5059738;28;20051;-85
2022/04/06 11:27:55;;;;;;;8.50;4.30;;;9.40;99.90;;;;;;5055344;28;20055;-84
2022/04/06 11:30:26;;;;;;;8.10;3.90;;;9.50;99.90;;;;;;5075611;28;20068;-82
2022/04/06 11:32:57;;;;;;;9.13;4.60;;;9.60;99.90;;;;;;5068028;28;20040;-80
2022/04/06 11:35:28;;;;;;;3.47;2.03;;;9.70;99.90;;;;;;5067072;28;20044;-82
2022/04/06 11:37:55;;;;;;;7.45;2.47;;;9.80;99.90;;;;;;5051847;28;20048;-84
2022/04/06 11:40:22;;;;;;;11.30;3.95;;;9.90;99.90;;;;;;5056037;28;20402;-82
2022/04/06 11:42:54;;;;;;;11.00;2.78;;;10.10;99.90;;;;;;5070602;28;20040;-82
2022/04/06 11:45:25;;;;;;;3.28;1.65;;;10.10;99.90;;;;;;5071370;28;20077;-79
2022/04/06 11:47:58;;;;;;;6.80;3.33;;;10.30;99.90;;;;;;5066794;28;20041;-80
2022/04/06 11:50:31;;;;;;;4.80;2.70;;;10.40;99.90;;;;;;5050664;28;20036;-83
2022/04/06 11:53:05;;;;;;;10.65;2.70;;;10.60;99.90;;;;;;5062951;28;20048;-80
2022/04/06 11:55:48;;;;;;;8.13;2.67;;;10.90;99.90;;;;;;5064591;28;20123;-80
2022/04/06 11:58:32;;;;;;;4.90;3.13;;;11.00;99.90;;;;;;5043540;28;20075;-78
2022/04/06 12:01:07;;;;;;;13.15;3.05;;;11.20;99.90;;;;;;5078133;28;20056;-82
2022/04/06 12:03:39;;;;;;;7.22;2.95;;;11.30;99.90;;;;;;5041881;28;20056;-83
2022/04/06 12:06:14;;;;;;;10.65;2.90;;;11.30;99.90;;;;;;5054273;28;20041;-80
2022/04/06 12:08:45;;;;;;;4.68;2.75;;;11.40;99.90;;;;;;5068055;28;20076;-80
2022/04/06 12:11:12;;;;;;;8.82;2.38;;;11.60;99.90;;;;;;5035788;28;20051;-83
2022/04/06 12:13:41;;;;;;;6.32;2.65;;;11.60;99.90;;;;;;5035168;28;20080;-83
2022/04/06 12:16:08;;;;;;;2.33;1.23;;;11.60;99.90;;;;;;5056012;28;20128;-81
2022/04/06 12:18:37;;;;;;;6.07;1.65;;;11.70;99.90;;;;;;5061322;28;20051;-80
2022/04/06 12:21:17;;;;;;;3.33;1.90;;;11.70;99.90;;;;;;5052447;28;20041;-78
2022/04/06 12:23:46;;;;;;;3.28;1.35;;;11.60;99.90;;;;;;5051355;28;20520;-82
2022/04/06 12:26:11;;;;;;;0.82;0.82;;;11.50;99.90;;;;;;5062347;28;20394;-81
2022/04/06 12:28:38;;;;;;;7.45;2.08;;;11.50;99.90;;;;;;5036771;28;20128;-83
2022/04/06 12:31:06;;;;;;;6.63;2.42;;;11.50;99.90;;;;;;5089828;28;20105;-82
2022/04/06 12:33:39;;;;;;;5.82;2.38;;;11.50;99.90;;;;;;5034048;28;20067;-82
2022/04/06 12:36:12;;;;;;;2.42;1.38;;;11.50;99.90;;;;;;5060496;28;20040;-81
2022/04/06 12:38:40;;;;;;;10.00;1.63;;;11.60;99.90;;;;;;5075205;28;20048;-83
2022/04/06 12:41:11;;;;;;;7.72;2.05;;;11.70;99.90;;;;;;5052649;28;20044;-80
2022/04/06 12:43:45;;;;;;;7.35;2.35;;;11.80;99.90;;;;;;5058549;28;20072;-80
2022/04/06 12:46:12;;;;;;;8.25;1.95;;;11.80;99.90;;;;;;5069689;28;20086;-81
2022/04/06 12:48:40;;;;;;;4.68;1.75;;;11.80;99.90;;;;;;5059876;28;20044;-85
2022/04/06 12:51:22;;;;;;;1.85;1.55;;;11.80;99.90;;;;;;5037311;28;20054;-81
2022/04/06 12:53:52;;;;;;;1.25;1.13;;;11.80;99.90;;;;;;5051977;28;20082;-82
2022/04/06 12:56:23;;;;;;;7.20;2.50;;;11.90;99.90;;;;;;5041515;28;20377;-85
2022/04/06 12:59:08;;;;;;;5.68;1.73;;;11.90;99.90;;;;;;5083847;28;20044;-82
2022/04/06 13:01:46;;;;;;;5.65;2.65;;;11.80;99.90;;;;;;5084460;28;20048;-81
2022/04/06 13:04:12;;;;;;;2.42;1.35;;;11.80;99.90;;;;;;5057240;28;20106;-82
2022/04/06 13:06:38;;;;;;;7.57;2.25;;;11.80;99.90;;;;;;5058139;28;20047;-82
2022/04/06 13:09:10;;;;;;;3.53;1.80;;;11.80;99.90;;;;;;5073905;28;20045;-79
2022/04/06 13:11:36;;;;;;;3.67;2.28;;;11.80;99.90;;;;;;5073301;28;20055;-81
2022/04/06 13:14:01;;;;;;;7.43;2.47;;;11.80;99.90;;;;;;5040234;28;20060;-79